Time;durP1;ratioP1;P1;durP2;ratioP2;P2;SDS_P1;SDS_P2;PMS_P1;PMS_P2;Temp;Humidity;BMP_temperature;BMP_pressure;BME280_temperature;BME280_humidity;BME280_pressure;Samples;Min_cycle;Max_cycle;Signal;HPM_P1;HPM_P2
2021/12/09 00:01:59;;;;;;;3.70;2.42;;;5.80;76.90;;;;;;5040378;28;20425;-92
2021/12/09 00:04:58;;;;;;;3.15;2.10;;;5.70;76.80;;;;;;5055486;28;20184;-90
2021/12/09 00:07:31;;;;;;;3.50;2.22;;;5.70;76.90;;;;;;5024728;28;20036;-90
2021/12/09 00:10:19;;;;;;;2.95;2.30;;;5.70;76.80;;;;;;5040987;28;20052;-89
2021/12/09 00:13:19;;;;;;;3.55;2.42;;;5.70;76.90;;;;;;5055392;28;20037;-90
2021/12/09 00:16:00;;;;;;;3.30;2.33;;;5.70;76.80;;;;;;5024535;28;20059;-90
2021/12/09 00:19:23;;;;;;;4.10;2.65;;;5.70;76.90;;;;;;5056396;28;20064;-91
2021/12/09 00:22:30;;;;;;;2.78;2.10;;;5.70;76.90;;;;;;5041330;28;20378;-91
2021/12/09 00:25:21;;;;;;;2.65;2.13;;;5.60;76.90;;;;;;5032750;28;20072;-91
2021/12/09 00:28:11;;;;;;;3.10;2.17;;;5.60;76.80;;;;;;5040215;28;20033;-90
2021/12/09 00:30:50;;;;;;;3.55;2.35;;;5.60;76.80;;;;;;5028734;28;20033;-90
2021/12/09 00:33:39;;;;;;;;;;;;;;;;;;;;;
2021/12/09 00:36:44;;;;;;;3.10;2.28;;;5.60;76.80;;;;;;5055898;28;20086;-90
2021/12/09 00:39:25;;;;;;;;;;;;;;;;;;;;;
2021/12/09 00:42:09;;;;;;;3.28;2.40;;;5.60;76.80;;;;;;5058468;28;20116;-90
2021/12/09 00:44:49;;;;;;;;;;;;;;;;;;;;;
2021/12/09 00:47:25;;;;;;;3.08;2.30;;;5.60;76.90;;;;;;5055931;28;20036;-90
2021/12/09 00:54:26;;;;;;;2.95;2.20;;;5.50;76.80;;;;;;5056875;28;20044;-90
2021/12/09 00:57:06;;;;;;;2.92;2.35;;;5.50;76.90;;;;;;5056436;28;20453;-90
2021/12/09 00:59:48;;;;;;;3.47;2.40;;;5.50;76.80;;;;;;5024036;28;20052;-90
2021/12/09 01:02:20;;;;;;;3.67;2.47;;;5.50;76.90;;;;;;5040601;28;20028;-91
2021/12/09 01:05:04;;;;;;;2.67;2.30;;;5.50;76.90;;;;;;5027170;28;20041;-90
2021/12/09 01:08:26;;;;;;;;;;;;;;;;;;;;;
2021/12/09 01:11:19;;;;;;;3.05;2.20;;;5.40;76.90;;;;;;5055903;28;20033;-91
2021/12/09 01:13:58;;;;;;;3.22;2.40;;;5.40;76.80;;;;;;5056921;28;20039;-90
2021/12/09 01:16:59;;;;;;;3.08;2.10;;;5.40;76.80;;;;;;5060276;28;20531;-90
2021/12/09 01:19:27;;;;;;;3.17;2.10;;;5.40;76.90;;;;;;5029213;28;20048;-81
2021/12/09 01:21:53;;;;;;;3.10;2.20;;;5.40;76.80;;;;;;5022998;28;20031;-82
2021/12/09 01:24:19;;;;;;;3.60;2.40;;;5.40;76.80;;;;;;5037144;28;20492;-81
2021/12/09 01:26:48;;;;;;;2.58;2.20;;;5.40;76.90;;;;;;5037185;28;20124;-85
2021/12/09 01:29:18;;;;;;;2.78;2.15;;;5.40;76.90;;;;;;5037207;28;20048;-82
2021/12/09 01:31:53;;;;;;;2.92;2.28;;;5.40;76.90;;;;;;5021273;28;20474;-83
2021/12/09 01:34:21;;;;;;;3.47;2.40;;;5.40;76.90;;;;;;5054030;28;20037;-82
2021/12/09 01:36:48;;;;;;;2.65;2.13;;;5.40;76.90;;;;;;5053361;28;20032;-83
2021/12/09 01:39:14;;;;;;;2.90;2.33;;;5.30;76.80;;;;;;5037102;28;20390;-83
2021/12/09 01:41:40;;;;;;;3.35;2.55;;;5.40;76.90;;;;;;5054045;28;20025;-83
2021/12/09 01:44:06;;;;;;;3.20;2.20;;;5.40;76.90;;;;;;5020127;28;20110;-83
2021/12/09 01:46:32;;;;;;;2.95;2.10;;;5.40;76.90;;;;;;5036571;28;20385;-83
2021/12/09 01:48:59;;;;;;;4.18;2.65;;;5.30;76.90;;;;;;5036534;28;20078;-83
2021/12/09 01:51:25;;;;;;;2.83;2.08;;;5.30;76.80;;;;;;5052864;28;20032;-82
2021/12/09 01:53:51;;;;;;;2.97;2.40;;;5.30;76.80;;;;;;5003961;28;20033;-82
2021/12/09 01:56:21;;;;;;;3.25;2.35;;;5.30;76.80;;;;;;5036291;28;20032;-83
2021/12/09 01:58:53;;;;;;;3.42;2.28;;;5.30;76.90;;;;;;5036682;28;20492;-83
2021/12/09 02:01:19;;;;;;;3.65;2.60;;;5.30;76.90;;;;;;5054370;28;20025;-83
2021/12/09 02:03:46;;;;;;;3.22;2.50;;;5.30;76.90;;;;;;5019897;28;20124;-89
2021/12/09 02:06:12;;;;;;;3.22;2.30;;;5.30;76.90;;;;;;5036531;28;20124;-81
2021/12/09 02:08:38;;;;;;;4.28;2.70;;;5.20;76.80;;;;;;5036048;28;20440;-83
2021/12/09 02:11:04;;;;;;;3.25;2.38;;;5.20;76.80;;;;;;5036385;28;20469;-82
2021/12/09 02:13:30;;;;;;;3.42;2.60;;;5.20;76.80;;;;;;5052806;28;20078;-83
2021/12/09 02:15:57;;;;;;;3.33;2.40;;;5.20;76.80;;;;;;5035967;28;20482;-83
2021/12/09 02:18:24;;;;;;;2.88;2.38;;;5.20;76.80;;;;;;5036535;28;20033;-84
2021/12/09 02:21:08;;;;;;;3.67;2.45;;;5.20;76.80;;;;;;5036152;28;20029;-84
2021/12/09 02:23:36;;;;;;;2.88;2.40;;;5.20;76.90;;;;;;5052978;28;20037;-83
2021/12/09 02:26:03;;;;;;;2.97;2.28;;;5.20;76.80;;;;;;5036731;28;20044;-83
2021/12/09 02:28:30;;;;;;;3.17;2.25;;;5.20;76.80;;;;;;5036037;28;20025;-83
2021/12/09 02:30:56;;;;;;;3.72;2.63;;;5.20;76.90;;;;;;5053581;28;20032;-83
2021/12/09 02:33:22;;;;;;;2.95;2.25;;;5.20;76.90;;;;;;5054558;28;20116;-83
2021/12/09 02:35:47;;;;;;;3.33;2.42;;;5.20;76.90;;;;;;5040128;28;20120;-82
2021/12/09 02:38:13;;;;;;;2.85;2.45;;;5.20;76.90;;;;;;5039961;28;20048;-82
2021/12/09 02:40:40;;;;;;;3.05;2.22;;;5.20;76.90;;;;;;5057759;28;20420;-83
2021/12/09 02:43:08;;;;;;;3.05;2.38;;;5.10;76.80;;;;;;5031459;28;20076;-83
2021/12/09 02:45:35;;;;;;;3.72;2.50;;;5.10;76.80;;;;;;5066746;28;20056;-84
2021/12/09 02:48:01;;;;;;;2.63;2.10;;;5.10;76.90;;;;;;5045097;28;20025;-82
2021/12/09 02:50:27;;;;;;;3.53;2.38;;;5.20;76.90;;;;;;5056457;28;20079;-84
2021/12/09 02:52:53;;;;;;;3.75;2.30;;;5.10;76.80;;;;;;5057205;28;20037;-83
2021/12/09 02:55:19;;;;;;;3.20;2.38;;;5.10;76.90;;;;;;5024052;28;20025;-83
2021/12/09 02:57:44;;;;;;;3.28;2.40;;;5.10;76.90;;;;;;5023303;28;20071;-84
2021/12/09 03:00:11;;;;;;;3.38;2.47;;;5.10;76.90;;;;;;5057286;28;20021;-83
2021/12/09 03:02:38;;;;;;;3.42;2.25;;;5.10;77.00;;;;;;5023254;28;20043;-83
2021/12/09 03:05:06;;;;;;;4.15;2.35;;;5.10;77.00;;;;;;5023230;28;20037;-84
2021/12/09 03:07:38;;;;;;;2.85;2.17;;;5.10;76.90;;;;;;5039750;28;20033;-85
2021/12/09 03:10:25;;;;;;;3.33;2.33;;;5.10;77.00;;;;;;5056757;28;20036;-85
2021/12/09 03:12:57;;;;;;;3.30;2.38;;;5.10;77.00;;;;;;5039902;28;20416;-85
2021/12/09 03:15:23;;;;;;;4.30;2.55;;;5.10;76.90;;;;;;5055938;28;20041;-82
2021/12/09 03:17:49;;;;;;;4.05;2.28;;;5.10;77.00;;;;;;5039339;28;20045;-83
2021/12/09 03:20:18;;;;;;;2.95;2.30;;;5.00;77.00;;;;;;5039281;28;20358;-85
2021/12/09 03:22:45;;;;;;;3.33;2.38;;;5.00;76.90;;;;;;5039061;28;20036;-83
2021/12/09 03:25:13;;;;;;;4.03;2.60;;;5.00;76.90;;;;;;5039143;28;20083;-83
2021/12/09 03:27:39;;;;;;;3.38;2.42;;;5.10;77.00;;;;;;5039364;28;20075;-82
2021/12/09 03:30:08;;;;;;;3.65;2.42;;;5.00;76.90;;;;;;5039974;28;20029;-84
2021/12/09 03:32:34;;;;;;;3.92;2.30;;;5.00;77.10;;;;;;5039928;28;20029;-82
2021/12/09 03:35:00;;;;;;;4.18;2.50;;;5.00;77.00;;;;;;5039208;28;20031;-83
2021/12/09 03:37:30;;;;;;;3.03;2.42;;;5.00;76.90;;;;;;5038927;28;20127;-83
2021/12/09 03:39:56;;;;;;;3.35;2.38;;;5.00;77.00;;;;;;5055953;28;20523;-83
2021/12/09 03:42:28;;;;;;;3.17;2.40;;;5.00;76.90;;;;;;5038722;28;20036;-86
2021/12/09 03:44:55;;;;;;;3.03;2.22;;;5.00;77.00;;;;;;5037387;28;20047;-85
2021/12/09 03:47:24;;;;;;;3.08;2.33;;;5.00;76.90;;;;;;5039128;28;20124;-83
2021/12/09 03:49:50;;;;;;;3.35;2.20;;;4.90;76.90;;;;;;5038882;28;20035;-83
2021/12/09 03:52:16;;;;;;;2.83;2.42;;;5.00;76.90;;;;;;5038688;28;20036;-83
2021/12/09 03:54:43;;;;;;;3.00;2.28;;;4.90;76.80;;;;;;5039009;28;20025;-82
2021/12/09 03:57:10;;;;;;;3.30;2.53;;;4.90;76.80;;;;;;5055511;28;20098;-83
2021/12/09 03:59:36;;;;;;;3.47;2.60;;;4.90;76.80;;;;;;5055126;28;20025;-83
2021/12/09 04:02:02;;;;;;;3.65;2.72;;;4.90;76.80;;;;;;5055420;28;20025;-88
2021/12/09 04:04:29;;;;;;;4.25;2.53;;;4.90;76.80;;;;;;5039561;28;20060;-83
2021/12/09 04:06:54;;;;;;;3.60;2.28;;;4.80;76.80;;;;;;5055386;28;20028;-82
2021/12/09 04:09:22;;;;;;;3.70;2.53;;;4.90;76.80;;;;;;5038456;28;20029;-82
2021/12/09 04:11:49;;;;;;;4.40;2.67;;;4.80;76.80;;;;;;5038353;28;20084;-83
2021/12/09 04:14:15;;;;;;;2.90;2.47;;;4.90;76.80;;;;;;5038504;28;20063;-82
2021/12/09 04:16:42;;;;;;;3.00;2.53;;;4.80;76.70;;;;;;5037972;28;20056;-82
2021/12/09 04:19:09;;;;;;;3.28;2.70;;;4.80;76.70;;;;;;5038582;28;20079;-83
2021/12/09 04:21:37;;;;;;;2.97;2.58;;;4.80;76.70;;;;;;5022565;28;20029;-83
2021/12/09 04:24:08;;;;;;;3.53;2.50;;;4.80;76.70;;;;;;5005636;28;20025;-86
2021/12/09 04:26:39;;;;;;;3.80;2.45;;;4.80;76.70;;;;;;5055200;28;20588;-84
2021/12/09 04:29:07;;;;;;;4.05;2.45;;;4.80;76.70;;;;;;5054830;28;20484;-87
2021/12/09 04:31:33;;;;;;;3.33;2.50;;;4.70;76.60;;;;;;5037895;28;20060;-82
2021/12/09 04:34:00;;;;;;;4.10;2.78;;;4.70;77.30;;;;;;5037806;28;20123;-83
2021/12/09 04:36:26;;;;;;;3.58;2.40;;;4.70;77.30;;;;;;5037733;28;20098;-82
2021/12/09 04:38:54;;;;;;;3.85;2.50;;;4.70;76.60;;;;;;5038112;28;20484;-84
2021/12/09 04:41:20;;;;;;;3.10;2.47;;;4.70;76.60;;;;;;5038395;28;20044;-83
2021/12/09 04:43:47;;;;;;;3.38;2.58;;;4.70;76.60;;;;;;5037664;28;20037;-82
2021/12/09 04:46:14;;;;;;;3.60;2.60;;;4.60;76.60;;;;;;5037788;28;20037;-83
2021/12/09 04:48:40;;;;;;;4.05;2.63;;;4.60;76.60;;;;;;5037726;28;20033;-82
2021/12/09 04:51:06;;;;;;;5.32;2.80;;;4.60;76.60;;;;;;5037662;28;20455;-85
2021/12/09 04:53:32;;;;;;;3.75;2.60;;;4.60;76.60;;;;;;5037667;28;20071;-82
2021/12/09 04:55:58;;;;;;;3.17;2.47;;;4.60;76.60;;;;;;5053438;28;20466;-83
2021/12/09 04:58:24;;;;;;;4.28;2.50;;;4.60;76.60;;;;;;5037355;28;20025;-82
2021/12/09 05:00:53;;;;;;;3.10;2.53;;;4.60;76.60;;;;;;5037090;28;20119;-82
2021/12/09 05:03:19;;;;;;;4.05;2.88;;;4.60;76.60;;;;;;5053809;28;20037;-82
2021/12/09 05:05:48;;;;;;;3.83;2.50;;;4.60;76.60;;;;;;5053859;28;20025;-83
2021/12/09 05:08:16;;;;;;;3.72;2.30;;;4.50;76.50;;;;;;5054003;28;20032;-82
2021/12/09 05:13:27;;;;;;;4.70;2.60;;;4.50;76.50;;;;;;5054143;28;20037;-82
2021/12/09 05:15:54;;;;;;;3.15;2.22;;;4.50;76.50;;;;;;5055229;28;20040;-81
2021/12/09 05:18:21;;;;;;;4.05;2.60;;;4.40;76.50;;;;;;5049176;28;20153;-82
2021/12/09 05:20:47;;;;;;;4.30;2.80;;;4.50;76.50;;;;;;5036570;28;20124;-84
2021/12/09 05:23:15;;;;;;;4.05;2.72;;;4.50;76.50;;;;;;5053800;28;20033;-89
2021/12/09 05:25:42;;;;;;;3.63;2.70;;;4.50;76.50;;;;;;5044125;28;20045;-82
2021/12/09 05:28:09;;;;;;;4.78;2.50;;;4.40;76.50;;;;;;5037016;28;20636;-83
2021/12/09 05:32:07;;;;;;;3.92;2.75;;;4.40;76.50;;;;;;5029282;28;20060;-83
2021/12/09 05:33:24;;;;;;;2.70;2.10;;;4.40;76.50;;;;;;5043188;28;20383;-87
2021/12/09 05:35:50;;;;;;;3.15;2.40;;;4.40;76.50;;;;;;5020187;28;20412;-82
2021/12/09 05:38:16;;;;;;;3.90;2.40;;;4.40;76.50;;;;;;5036930;28;20036;-83
2021/12/09 05:40:42;;;;;;;3.53;2.42;;;4.40;76.50;;;;;;5020195;28;20029;-83
2021/12/09 05:43:08;;;;;;;3.38;2.55;;;4.30;76.50;;;;;;5036131;28;20057;-83
2021/12/09 05:45:34;;;;;;;4.32;2.60;;;4.30;76.50;;;;;;5036445;28;20087;-81
2021/12/09 05:47:59;;;;;;;4.20;2.42;;;4.40;76.50;;;;;;5019899;28;20033;-87
2021/12/09 05:50:25;;;;;;;3.92;2.58;;;4.30;76.50;;;;;;5036871;28;20104;-82
2021/12/09 05:52:51;;;;;;;3.28;2.42;;;4.30;76.50;;;;;;5037002;28;20406;-82
2021/12/09 05:55:17;;;;;;;2.95;2.28;;;4.30;76.40;;;;;;5052967;28;20021;-90
2021/12/09 05:57:42;;;;;;;4.00;2.55;;;4.30;76.50;;;;;;5035835;28;20037;-83
2021/12/09 06:00:09;;;;;;;3.83;2.25;;;4.30;76.50;;;;;;5020154;28;20029;-82
2021/12/09 06:02:39;;;;;;;4.35;2.30;;;4.30;76.50;;;;;;5053754;28;20385;-82
2021/12/09 06:05:05;;;;;;;3.67;2.55;;;4.30;76.50;;;;;;5035957;28;20033;-82
2021/12/09 06:07:31;;;;;;;3.78;2.35;;;4.20;76.40;;;;;;5019608;28;20033;-82
2021/12/09 06:10:00;;;;;;;3.72;2.40;;;4.30;76.50;;;;;;5035856;28;20477;-82
2021/12/09 06:12:26;;;;;;;3.25;2.42;;;4.30;76.50;;;;;;5036503;28;20036;-82
2021/12/09 06:14:51;;;;;;;4.18;2.58;;;4.30;76.40;;;;;;5036003;28;20029;-87
2021/12/09 06:17:17;;;;;;;4.28;2.78;;;4.30;76.40;;;;;;5018861;28;20099;-82
2021/12/09 06:19:43;;;;;;;3.38;2.30;;;4.20;76.40;;;;;;5036288;28;20099;-81
2021/12/09 06:22:09;;;;;;;3.38;2.35;;;4.20;76.40;;;;;;5053284;28;20048;-82
2021/12/09 06:24:35;;;;;;;3.75;2.40;;;4.20;76.40;;;;;;5019603;28;20037;-82
2021/12/09 06:27:03;;;;;;;3.42;2.35;;;4.20;76.40;;;;;;5035897;28;20041;-83
2021/12/09 06:29:29;;;;;;;2.88;2.17;;;4.10;76.40;;;;;;5052157;28;20116;-82
2021/12/09 06:31:54;;;;;;;2.78;2.22;;;4.20;76.40;;;;;;5020249;28;20049;-84
2021/12/09 06:34:20;;;;;;;3.42;2.28;;;4.20;76.40;;;;;;5036044;28;20060;-82
2021/12/09 06:36:46;;;;;;;2.60;2.17;;;4.20;76.40;;;;;;5036183;28;20029;-81
2021/12/09 06:39:12;;;;;;;3.88;2.22;;;4.10;76.40;;;;;;5036102;28;20106;-82
2021/12/09 06:41:38;;;;;;;4.05;2.10;;;4.10;76.40;;;;;;5020902;28;20022;-82
2021/12/09 06:44:05;;;;;;;2.90;2.22;;;4.10;76.40;;;;;;5037286;28;20175;-81
2021/12/09 06:46:30;;;;;;;2.90;2.20;;;4.10;76.40;;;;;;5020066;28;20493;-81
2021/12/09 06:48:57;;;;;;;2.80;2.03;;;4.10;76.30;;;;;;5035848;28;20103;-84
2021/12/09 06:51:23;;;;;;;3.00;2.17;;;4.10;76.40;;;;;;5035932;28;20454;-81
2021/12/09 06:53:49;;;;;;;3.35;2.40;;;4.10;76.40;;;;;;5019133;28;20033;-81
2021/12/09 06:56:15;;;;;;;4.72;2.53;;;4.10;76.40;;;;;;5052536;28;20025;-80
2021/12/09 06:58:40;;;;;;;2.67;2.03;;;4.10;76.50;;;;;;5052576;28;20073;-83
2021/12/09 07:01:07;;;;;;;3.28;2.10;;;4.10;76.40;;;;;;5019567;28;20029;-81
2021/12/09 07:03:34;;;;;;;3.63;2.40;;;4.00;77.00;;;;;;5035532;28;20044;-82
2021/12/09 07:06:06;;;;;;;3.40;2.30;;;4.00;76.40;;;;;;5035714;28;20405;-82
2021/12/09 07:08:33;;;;;;;2.53;2.20;;;4.00;76.40;;;;;;5036528;28;20040;-81
2021/12/09 07:10:59;;;;;;;3.38;2.40;;;4.00;77.00;;;;;;5035606;28;20087;-81
2021/12/09 07:13:24;;;;;;;3.45;2.35;;;4.00;76.40;;;;;;5036217;28;20470;-81
2021/12/09 07:15:50;;;;;;;2.10;1.90;;;4.00;76.40;;;;;;5035750;28;20028;-82
2021/12/09 07:18:20;;;;;;;3.75;2.45;;;4.00;76.40;;;;;;5018828;28;20049;-81
2021/12/09 07:20:46;;;;;;;3.08;2.30;;;4.00;76.40;;;;;;5023694;28;20037;-82
2021/12/09 07:23:12;;;;;;;3.33;2.28;;;4.00;76.40;;;;;;5038982;28;20036;-81
2021/12/09 07:25:38;;;;;;;3.22;2.28;;;4.00;76.50;;;;;;5022549;28;20534;-82
2021/12/09 07:28:04;;;;;;;3.30;2.42;;;4.00;76.50;;;;;;5023241;28;20446;-82
2021/12/09 07:30:29;;;;;;;3.38;2.08;;;3.90;76.40;;;;;;5056149;28;20028;-86
2021/12/09 07:32:56;;;;;;;3.10;2.28;;;4.00;76.50;;;;;;5055809;28;20033;-81
2021/12/09 07:35:23;;;;;;;3.35;2.15;;;4.00;76.50;;;;;;5055476;28;20523;-82
2021/12/09 07:37:49;;;;;;;2.85;2.13;;;4.00;76.40;;;;;;5055028;28;20079;-81
2021/12/09 07:40:17;;;;;;;2.80;1.98;;;4.00;76.50;;;;;;5038772;28;20192;-82
2021/12/09 07:42:44;;;;;;;3.35;2.20;;;4.00;76.50;;;;;;5038733;28;20017;-83
2021/12/09 07:45:11;;;;;;;2.63;1.90;;;4.00;76.50;;;;;;5022079;28;20037;-82
2021/12/09 07:47:37;;;;;;;3.17;2.00;;;3.90;76.40;;;;;;5055459;28;20036;-84
2021/12/09 07:50:07;;;;;;;3.35;2.30;;;4.00;76.40;;;;;;5038599;28;20124;-83
2021/12/09 07:52:34;;;;;;;3.45;1.98;;;3.90;76.40;;;;;;5038909;28;20029;-87
2021/12/09 07:55:00;;;;;;;2.90;2.10;;;3.90;76.40;;;;;;5039392;28;20020;-84
2021/12/09 07:57:26;;;;;;;2.80;1.92;;;3.90;76.40;;;;;;5038468;28;20041;-82
2021/12/09 07:59:52;;;;;;;3.90;2.20;;;3.90;76.50;;;;;;5022024;28;20186;-85
2021/12/09 08:02:18;;;;;;;3.67;2.10;;;3.90;76.50;;;;;;5022019;28;20078;-82
2021/12/09 08:04:43;;;;;;;3.58;2.00;;;3.90;76.50;;;;;;5055743;28;20124;-83
2021/12/09 08:07:09;;;;;;;3.08;2.10;;;3.90;76.50;;;;;;5056079;28;20036;-81
2021/12/09 08:09:35;;;;;;;4.25;2.38;;;3.90;76.50;;;;;;5023260;28;20029;-86
2021/12/09 08:12:01;;;;;;;2.20;1.65;;;3.90;76.50;;;;;;5039680;28;20036;-84
2021/12/09 08:14:27;;;;;;;2.10;1.90;;;3.90;76.50;;;;;;5057944;28;20103;-81
2021/12/09 08:17:23;;;;;;;2.65;2.20;;;3.90;76.50;;;;;;5060297;28;20088;-81
2021/12/09 08:19:42;;;;;;;3.45;2.30;;;3.90;76.50;;;;;;5053569;28;20075;-82
2021/12/09 08:22:08;;;;;;;2.20;1.98;;;3.90;76.50;;;;;;5038347;28;20052;-81
2021/12/09 08:24:34;;;;;;;2.00;1.80;;;3.90;76.50;;;;;;5056323;28;20094;-81
2021/12/09 08:27:00;;;;;;;2.63;2.13;;;3.90;76.50;;;;;;5054476;28;20064;-82
2021/12/09 08:29:26;;;;;;;4.25;2.10;;;3.90;76.60;;;;;;5055885;28;20052;-82
2021/12/09 08:31:52;;;;;;;3.90;2.28;;;3.90;76.60;;;;;;5053742;28;20033;-82
2021/12/09 08:34:17;;;;;;;3.95;2.20;;;3.90;76.60;;;;;;5021995;28;20442;-82
2021/12/09 08:36:43;;;;;;;2.35;2.10;;;3.90;76.60;;;;;;5054081;28;20037;-82
2021/12/09 08:39:09;;;;;;;2.67;2.00;;;3.90;76.60;;;;;;5037776;28;20489;-81
2021/12/09 08:41:35;;;;;;;2.55;1.90;;;3.90;76.60;;;;;;5021396;28;20029;-81
2021/12/09 08:44:01;;;;;;;2.60;2.00;;;3.90;76.60;;;;;;5038210;28;20126;-82
2021/12/09 08:46:26;;;;;;;3.35;2.00;;;3.90;76.60;;;;;;5021730;28;20458;-83
2021/12/09 08:48:53;;;;;;;2.67;1.90;;;3.90;76.60;;;;;;5054853;28;20464;-82
2021/12/09 08:51:18;;;;;;;2.83;2.00;;;3.90;76.70;;;;;;5037588;28;20040;-82
2021/12/09 08:53:45;;;;;;;2.47;1.90;;;3.90;76.60;;;;;;5037447;28;20033;-81
2021/12/09 08:56:11;;;;;;;2.15;1.92;;;3.90;76.70;;;;;;5021187;28;20087;-82
2021/12/09 08:58:37;;;;;;;2.92;1.85;;;3.90;76.60;;;;;;5037249;28;20021;-81
2021/12/09 09:01:04;;;;;;;4.20;2.15;;;4.00;76.70;;;;;;5054147;28;20033;-80
2021/12/09 09:03:30;;;;;;;2.58;2.00;;;4.00;76.70;;;;;;5053793;28;20021;-81
2021/12/09 09:05:56;;;;;;;2.83;2.13;;;3.90;76.60;;;;;;5053814;28;20033;-81
2021/12/09 09:08:22;;;;;;;3.17;1.90;;;3.90;76.70;;;;;;5037962;28;20025;-81
2021/12/09 09:10:49;;;;;;;3.33;2.10;;;4.00;76.70;;;;;;5055130;28;20415;-87
2021/12/09 09:13:15;;;;;;;2.65;2.00;;;4.00;76.80;;;;;;5037048;28;20037;-82
2021/12/09 09:15:41;;;;;;;2.20;1.80;;;4.00;76.80;;;;;;5037326;28;20110;-82
2021/12/09 09:18:08;;;;;;;3.80;2.20;;;4.00;76.80;;;;;;5020015;28;20444;-81
2021/12/09 09:20:39;;;;;;;2.78;2.15;;;4.00;76.90;;;;;;5021731;28;20033;-83
2021/12/09 09:23:11;;;;;;;2.08;1.85;;;4.00;76.80;;;;;;5053482;28;20033;-83
2021/12/09 09:25:37;;;;;;;3.00;2.00;;;4.10;76.90;;;;;;5038168;28;20119;-83
2021/12/09 09:28:03;;;;;;;1.92;1.70;;;4.10;76.90;;;;;;5053699;28;20021;-85
2021/12/09 09:30:36;;;;;;;4.13;2.63;;;4.10;76.90;;;;;;5053973;28;20035;-82
2021/12/09 09:33:12;;;;;;;2.67;2.03;;;4.10;76.90;;;;;;5053484;28;20060;-82
2021/12/09 09:35:40;;;;;;;3.20;2.50;;;4.10;77.00;;;;;;5037184;28;20467;-81
2021/12/09 09:38:07;;;;;;;3.08;2.28;;;4.10;76.90;;;;;;5053878;28;20024;-81
2021/12/09 09:41:04;;;;;;;3.25;2.05;;;4.20;77.00;;;;;;5036930;28;20036;-84
2021/12/09 09:43:44;;;;;;;2.50;1.85;;;4.20;77.10;;;;;;5036411;28;20036;-82
2021/12/09 09:46:12;;;;;;;3.20;2.17;;;4.20;77.00;;;;;;5037172;28;20474;-83
2021/12/09 09:48:39;;;;;;;3.03;2.10;;;4.20;77.00;;;;;;5052886;28;20021;-81
2021/12/09 09:51:07;;;;;;;3.50;2.63;;;4.20;77.00;;;;;;5052748;28;20029;-81
2021/12/09 09:53:34;;;;;;;3.05;2.20;;;4.20;77.10;;;;;;5019900;28;20483;-83
2021/12/09 09:56:00;;;;;;;2.38;1.95;;;4.30;77.10;;;;;;5036618;28;20040;-80
2021/12/09 09:58:27;;;;;;;2.97;2.15;;;4.30;77.20;;;;;;5036437;28;20124;-83
2021/12/09 10:00:53;;;;;;;5.15;2.67;;;4.30;77.20;;;;;;5036112;28;20021;-85
2021/12/09 10:03:19;;;;;;;3.15;2.15;;;4.30;77.20;;;;;;5052394;28;20527;-82
2021/12/09 10:05:47;;;;;;;3.08;1.90;;;4.40;77.30;;;;;;5036114;28;20037;-82
2021/12/09 10:08:15;;;;;;;3.13;2.10;;;4.40;77.30;;;;;;5053730;28;20021;-81
2021/12/09 10:10:44;;;;;;;2.72;2.00;;;4.40;77.30;;;;;;5052808;28;20036;-82
2021/12/09 10:13:13;;;;;;;3.47;2.25;;;4.50;77.30;;;;;;5036126;28;20035;-81
2021/12/09 10:15:51;;;;;;;3.03;2.42;;;4.50;77.30;;;;;;5052506;28;20033;-81
2021/12/09 10:18:44;;;;;;;3.65;2.10;;;4.50;77.40;;;;;;5035975;28;20044;-83
2021/12/09 10:21:13;;;;;;;4.38;2.50;;;4.60;77.40;;;;;;5053841;28;20029;-82
2021/12/09 10:23:46;;;;;;;3.05;2.03;;;4.60;77.30;;;;;;5052301;28;20033;-82
2021/12/09 10:26:24;;;;;;;2.90;2.30;;;4.60;77.40;;;;;;5036628;28;20033;-82
2021/12/09 10:29:15;;;;;;;2.45;2.10;;;4.60;77.50;;;;;;5035963;28;20112;-83
2021/12/09 10:31:46;;;;;;;2.58;2.03;;;4.60;77.40;;;;;;5036185;28;20036;-82
2021/12/09 10:37:05;;;;;;;3.47;2.05;;;4.80;77.60;;;;;;5052669;28;20040;-83
2021/12/09 10:39:50;;;;;;;2.78;2.05;;;4.80;77.50;;;;;;5035952;28;20066;-83
2021/12/09 10:42:29;;;;;;;2.88;2.10;;;4.80;77.50;;;;;;5052744;28;20029;-84
2021/12/09 10:45:06;;;;;;;2.35;2.15;;;4.80;77.50;;;;;;5036473;28;20056;-84
2021/12/09 10:50:27;;;;;;;2.65;2.00;;;4.90;77.60;;;;;;5052180;28;20029;-83
2021/12/09 10:53:31;;;;;;;3.28;2.15;;;4.90;77.60;;;;;;5052344;28;20036;-82
2021/12/09 10:56:03;;;;;;;3.42;2.20;;;5.00;77.60;;;;;;5056173;28;20478;-82
2021/12/09 10:58:35;;;;;;;3.30;2.00;;;5.00;77.60;;;;;;5040413;28;20470;-81
2021/12/09 11:01:08;;;;;;;2.70;2.10;;;5.00;77.70;;;;;;5039581;28;20025;-82
2021/12/09 11:03:42;;;;;;;2.67;2.10;;;5.00;77.60;;;;;;5041352;28;20440;-83
2021/12/09 11:06:16;;;;;;;3.97;2.35;;;5.10;77.70;;;;;;5039630;28;20423;-83
2021/12/09 11:08:55;;;;;;;3.75;2.25;;;5.10;77.60;;;;;;5039324;28;20164;-83
2021/12/09 11:11:34;;;;;;;3.25;2.35;;;5.10;77.60;;;;;;5056771;28;20063;-82
2021/12/09 11:14:17;;;;;;;3.30;2.45;;;5.20;77.80;;;;;;5056035;28;20040;-82
2021/12/09 11:17:07;;;;;;;3.20;2.28;;;5.20;77.70;;;;;;5039996;28;20120;-82
2021/12/09 11:22:01;;;;;;;3.17;2.30;;;5.20;77.60;;;;;;5039170;28;20136;-82
2021/12/09 11:24:32;;;;;;;3.47;2.58;;;5.20;77.60;;;;;;5039199;28;20094;-83
2021/12/09 11:27:12;;;;;;;4.10;2.53;;;5.30;77.70;;;;;;5039270;28;20029;-83
2021/12/09 11:29:48;;;;;;;3.17;2.33;;;5.30;77.60;;;;;;5039233;28;20029;-84
2021/12/09 11:32:37;;;;;;;3.13;2.25;;;5.30;77.70;;;;;;5056769;28;20063;-82
2021/12/09 11:35:15;;;;;;;4.47;2.70;;;5.30;77.70;;;;;;5039147;28;20040;-82
2021/12/09 11:37:58;;;;;;;3.15;2.25;;;5.40;77.70;;;;;;5055659;28;20025;-83
2021/12/09 11:40:36;;;;;;;3.38;2.42;;;5.40;77.60;;;;;;5024867;28;20065;-83
2021/12/09 11:43:04;;;;;;;4.43;2.60;;;5.40;77.60;;;;;;5038297;28;20029;-82
2021/12/09 11:45:36;;;;;;;4.53;2.72;;;5.40;77.70;;;;;;5038762;28;20033;-83
2021/12/09 11:48:04;;;;;;;4.45;2.85;;;5.50;77.70;;;;;;5055475;28;20060;-84
2021/12/09 11:50:33;;;;;;;5.20;2.65;;;5.50;77.70;;;;;;5055245;28;20096;-83
2021/12/09 11:53:01;;;;;;;4.07;2.85;;;5.50;77.70;;;;;;5054891;28;20033;-82
2021/12/09 11:55:45;;;;;;;4.43;3.00;;;5.50;77.70;;;;;;5038430;28;20039;-81
2021/12/09 11:58:24;;;;;;;3.97;2.72;;;5.60;77.80;;;;;;5040719;28;20478;-82
2021/12/09 12:07:43;;;;;;;3.90;2.88;;;5.70;77.80;;;;;;5054778;28;20041;-86
2021/12/09 12:12:54;;;;;;;3.67;2.63;;;5.70;77.60;;;;;;5056612;28;19905;-85
2021/12/09 12:18:30;;;;;;;4.57;2.85;;;5.70;77.70;;;;;;5055917;28;20072;-87
2021/12/09 12:24:17;;;;;;;5.23;3.23;;;5.80;77.80;;;;;;5033234;28;20049;-89
2021/12/09 12:27:01;;;;;;;3.63;2.75;;;5.80;77.70;;;;;;5039372;28;20041;-87
2021/12/09 12:35:09;;;;;;;3.58;2.55;;;5.90;77.70;;;;;;5056383;28;20116;-88
2021/12/09 12:41:18;;;;;;;4.45;2.80;;;6.00;77.70;;;;;;5012725;28;20067;-87
2021/12/09 12:44:09;;;;;;;4.68;3.33;;;6.00;77.60;;;;;;5039847;28;20052;-86
2021/12/09 12:47:11;;;;;;;4.50;2.85;;;6.00;77.70;;;;;;5054942;28;20094;-86
2021/12/09 12:49:46;;;;;;;3.90;2.83;;;6.10;77.80;;;;;;5038343;28;20385;-86
2021/12/09 12:52:27;;;;;;;4.10;3.10;;;6.10;77.60;;;;;;5038283;28;20035;-84
2021/12/09 12:55:12;;;;;;;4.18;3.05;;;6.10;77.70;;;;;;5038554;28;20033;-84
2021/12/09 12:57:46;;;;;;;4.15;2.88;;;6.20;78.40;;;;;;5037383;28;20031;-89
2021/12/09 13:00:30;;;;;;;4.33;2.97;;;6.20;77.60;;;;;;5038250;28;20056;-83
2021/12/09 13:06:09;;;;;;;3.75;2.83;;;6.30;77.60;;;;;;5054267;28;20020;-84
2021/12/09 13:11:53;;;;;;;4.28;2.95;;;6.30;77.60;;;;;;5054263;28;20033;-82
2021/12/09 13:14:24;;;;;;;3.53;2.83;;;6.30;77.60;;;;;;5054237;28;20039;-86
2021/12/09 13:17:08;;;;;;;4.13;2.90;;;6.40;77.60;;;;;;5037195;28;20537;-84
2021/12/09 13:19:41;;;;;;;4.13;3.22;;;6.40;77.70;;;;;;5037441;28;20041;-84
2021/12/09 13:22:08;;;;;;;3.88;2.75;;;6.40;77.60;;;;;;5054826;28;20078;-85
2021/12/09 13:55:22;;;;;;;3.88;3.20;;;6.70;77.50;;;;;;5053069;28;20059;-84
2021/12/09 13:58:01;;;;;;;4.43;3.53;;;6.70;77.40;;;;;;5053737;28;20098;-83
2021/12/09 14:00:27;;;;;;;5.05;3.35;;;6.70;77.40;;;;;;5052793;28;20123;-82
2021/12/09 14:03:04;;;;;;;4.22;3.17;;;6.70;77.30;;;;;;5036291;28;20029;-85
2021/12/09 14:05:42;;;;;;;4.70;3.60;;;6.80;77.40;;;;;;5054192;28;20034;-82
2021/12/09 14:08:10;;;;;;;4.68;3.40;;;6.80;77.40;;;;;;5052804;28;20025;-82
2021/12/09 14:10:40;;;;;;;4.60;3.15;;;6.80;77.30;;;;;;5052637;28;20021;-82
2021/12/09 14:13:13;;;;;;;4.53;3.40;;;6.80;77.30;;;;;;5036266;28;20124;-82
2021/12/09 14:15:57;;;;;;;4.95;3.67;;;6.80;77.20;;;;;;5053509;28;20025;-83
2021/12/09 14:18:31;;;;;;;4.47;3.57;;;6.90;77.20;;;;;;5052445;28;20049;-81
2021/12/09 14:20:59;;;;;;;4.00;3.33;;;6.90;77.20;;;;;;5052334;28;20493;-81
2021/12/09 14:23:25;;;;;;;4.75;3.50;;;6.90;77.10;;;;;;5036336;28;20287;-84
2021/12/09 14:25:51;;;;;;;4.95;3.28;;;6.90;77.10;;;;;;5053508;28;20478;-83
2021/12/09 14:28:19;;;;;;;4.70;3.53;;;6.90;77.10;;;;;;5019013;28;20028;-82
2021/12/09 14:30:48;;;;;;;4.43;3.22;;;7.00;77.20;;;;;;5035934;28;20037;-82
2021/12/09 14:33:16;;;;;;;4.43;3.08;;;7.00;77.20;;;;;;5053750;28;20037;-80
2021/12/09 14:35:47;;;;;;;5.15;3.50;;;7.00;77.10;;;;;;5019640;28;20032;-81
2021/12/09 14:38:20;;;;;;;4.55;3.50;;;7.00;77.10;;;;;;5035843;28;20048;-82
2021/12/09 14:40:50;;;;;;;4.35;3.25;;;7.00;77.10;;;;;;5052802;28;20083;-82